createdAt,value
2022-11-22T00:02:19.585Z,98301.50
2022-11-22T00:07:21.264Z,98296.38
2022-11-22T00:12:22.793Z,98305.44
2022-11-22T00:17:24.245Z,98298.38
2022-11-22T00:22:25.897Z,98290.63
2022-11-22T00:27:27.397Z,98275.16
2022-11-22T00:32:28.767Z,98268.94
2022-11-22T00:37:30.177Z,98266.50
2022-11-22T00:42:31.733Z,98288.84
2022-11-22T00:47:33.172Z,98292.13
2022-11-22T00:52:34.658Z,98292.63
2022-11-22T00:57:36.190Z,98286.53
2022-11-22T01:02:37.732Z,98306.91
2022-11-22T01:07:39.415Z,98307.91
2022-11-22T01:12:40.937Z,98308.75
2022-11-22T01:17:42.524Z,98302.81
2022-11-22T01:22:43.981Z,98286.72
2022-11-22T01:27:45.561Z,98305.94
2022-11-22T01:32:47.070Z,98314.47
2022-11-22T01:37:48.589Z,98317.06
2022-11-22T01:42:56.053Z,98332.81
2022-11-22T01:48:01.213Z,98327.06
2022-11-22T01:53:06.806Z,98344.63
2022-11-22T01:58:09.421Z,98351.84
2022-11-22T02:03:14.982Z,98353.97
2022-11-22T02:08:35.360Z,98353.03
2022-11-22T02:13:42.412Z,98351.53
2022-11-22T02:18:43.954Z,98354.00
2022-11-22T02:24:14.434Z,98358.41
2022-11-22T02:29:16.236Z,98351.69
2022-11-22T02:34:17.746Z,98352.19
2022-11-22T02:39:31.887Z,98348.56
2022-11-22T02:44:34.049Z,98362.06
2022-11-22T02:49:35.686Z,98373.03
2022-11-22T02:54:37.178Z,98381.72
2022-11-22T02:59:38.801Z,98386.50
2022-11-22T03:04:40.265Z,98384.00
2022-11-22T03:09:41.734Z,98389.97
2022-11-22T03:14:43.282Z,98388.31
2022-11-22T03:19:44.973Z,98394.78
2022-11-22T03:24:46.517Z,98414.41
2022-11-22T03:29:48.036Z,98418.53
2022-11-22T03:34:49.603Z,98419.44
2022-11-22T03:39:51.289Z,98415.66
2022-11-22T03:44:52.800Z,98416.97
2022-11-22T03:49:54.300Z,98429.47
2022-11-22T03:54:56.453Z,98433.91
2022-11-22T03:59:57.968Z,98431.06
2022-11-22T04:04:59.389Z,98426.31
2022-11-22T04:10:00.830Z,98419.84
2022-11-22T04:15:02.857Z,98416.09
2022-11-22T04:20:04.827Z,98413.69
2022-11-22T04:25:06.519Z,98397.94
2022-11-22T04:30:08.334Z,98395.13
2022-11-22T04:35:09.754Z,98398.63
2022-11-22T04:40:11.404Z,98409.13
2022-11-22T04:45:12.802Z,98409.22
2022-11-22T04:50:14.634Z,98425.78
2022-11-22T04:55:16.157Z,98424.78
2022-11-22T05:00:18.049Z,98427.81
2022-11-22T05:05:19.633Z,98451.78
2022-11-22T05:10:26.056Z,98463.13
2022-11-22T05:15:28.390Z,98469.63
2022-11-22T05:20:29.862Z,98455.53
2022-11-22T05:25:31.298Z,98453.78
2022-11-22T05:30:32.726Z,98457.50
2022-11-22T05:35:34.318Z,98457.69
2022-11-22T05:40:35.735Z,98445.53
2022-11-22T05:45:37.187Z,98448.25
2022-11-22T05:50:38.676Z,98457.22
2022-11-22T05:55:40.113Z,98476.13
2022-11-22T06:00:41.889Z,98475.22
2022-11-22T06:05:43.330Z,98486.75
2022-11-22T06:10:44.798Z,98497.00
2022-11-22T06:15:46.260Z,98505.88
2022-11-22T06:20:47.683Z,98512.75
2022-11-22T06:25:59.489Z,98514.34
2022-11-22T06:31:17.292Z,98532.78
2022-11-22T06:36:21.691Z,98538.22
2022-11-22T06:41:28.634Z,98540.97
2022-11-22T06:46:30.068Z,98537.81
2022-11-22T06:51:32.244Z,98564.72
2022-11-22T06:56:37.894Z,98584.63
2022-11-22T07:01:39.447Z,98588.63
2022-11-22T07:06:40.923Z,98580.09
2022-11-22T07:11:42.356Z,98592.47
2022-11-22T07:16:43.783Z,98582.44
2022-11-22T07:21:45.313Z,98588.88
2022-11-22T07:26:46.744Z,98593.31
2022-11-22T07:31:48.268Z,98595.78
2022-11-22T07:36:53.111Z,98593.06
2022-11-22T07:41:57.278Z,98588.28
2022-11-22T07:46:58.723Z,98589.78
2022-11-22T07:52:00.195Z,98602.47
2022-11-22T07:57:01.733Z,98619.84
2022-11-22T08:02:03.310Z,98612.16
2022-11-22T08:07:05.062Z,98602.81
2022-11-22T08:12:06.815Z,98615.19
2022-11-22T08:17:08.231Z,98619.22
2022-11-22T08:22:09.910Z,98626.69
2022-11-22T08:27:11.346Z,98629.16
2022-11-22T08:32:12.803Z,98634.94
2022-11-22T08:37:14.267Z,98651.81
2022-11-22T08:42:15.709Z,98667.16
2022-11-22T08:47:17.400Z,98685.66
2022-11-22T08:52:18.877Z,98678.78
2022-11-22T08:57:20.414Z,98683.03
2022-11-22T09:02:21.810Z,98683.72
2022-11-22T09:12:47.666Z,98672.53
2022-11-22T09:17:49.104Z,98667.94
2022-11-22T09:22:50.543Z,98650.50
2022-11-22T09:27:52.010Z,98659.53
2022-11-22T09:32:53.380Z,98655.09
2022-11-22T09:37:54.808Z,98650.75
2022-11-22T09:43:16.912Z,98643.72
2022-11-22T09:48:47.825Z,98646.72
2022-11-22T09:53:54.953Z,98649.84
2022-11-22T09:59:16.641Z,98648.66
2022-11-22T10:04:24.857Z,98645.66
2022-11-22T10:09:35.866Z,98649.94
2022-11-22T10:14:57.578Z,98652.91
2022-11-22T10:20:11.849Z,98658.34
2022-11-22T10:25:24.301Z,98631.22
2022-11-22T10:30:25.958Z,98624.09
2022-11-22T10:35:46.201Z,98613.38
2022-11-22T10:41:16.641Z,98624.53
2022-11-22T10:46:31.974Z,98615.19
2022-11-22T10:51:56.135Z,98607.28
2022-11-22T10:57:12.917Z,98610.44
2022-11-22T11:02:54.050Z,98600.94
2022-11-22T11:08:04.151Z,98601.25
2022-11-22T11:13:16.800Z,98601.31
2022-11-22T11:18:47.111Z,98595.44
2022-11-22T11:23:48.654Z,98592.88
2022-11-22T11:28:50.303Z,98582.66
2022-11-22T11:33:51.764Z,98580.66
2022-11-22T11:38:54.742Z,98595.16
2022-11-22T11:43:59.038Z,98598.94
2022-11-22T11:49:17.666Z,98592.53
2022-11-22T11:54:21.805Z,98593.03
2022-11-22T11:59:41.945Z,98597.31
2022-11-22T12:05:25.315Z,98592.91
2022-11-22T12:10:45.183Z,98601.28
2022-11-22T12:16:20.499Z,98590.56
2022-11-22T12:21:33.603Z,98597.13
2022-11-22T12:26:35.199Z,98597.47
2022-11-22T12:31:40.807Z,98592.41
2022-11-22T12:37:05.577Z,98591.41
2022-11-22T12:42:16.457Z,98590.03
2022-11-22T12:47:28.715Z,98581.00
2022-11-22T12:52:39.083Z,98583.50
2022-11-22T12:57:56.617Z,98588.56
2022-11-22T13:03:12.878Z,98584.94
2022-11-22T13:08:16.871Z,98595.16
2022-11-22T13:13:32.310Z,98589.53
2022-11-22T13:18:39.622Z,98580.66
2022-11-22T13:24:14.886Z,98576.25
2022-11-22T13:29:23.440Z,98572.81
2022-11-22T13:34:26.095Z,98577.06
2022-11-22T13:39:27.684Z,98580.00
2022-11-22T13:44:32.030Z,98585.97
2022-11-22T13:49:39.253Z,98568.03
2022-11-22T13:54:51.797Z,98566.22
2022-11-22T14:00:11.442Z,98567.38
2022-11-22T14:05:25.711Z,98553.72
2022-11-22T14:10:48.938Z,98562.44
2022-11-22T14:16:08.912Z,98560.94
2022-11-22T14:21:26.961Z,98566.03
2022-11-22T14:26:36.429Z,98561.25
2022-11-22T14:31:39.010Z,98561.59
2022-11-22T14:36:40.920Z,98570.50
2022-11-22T14:41:43.401Z,98566.84
2022-11-22T14:47:04.286Z,98559.94
2022-11-22T14:52:30.461Z,98557.31
2022-11-22T14:57:33.821Z,98570.44
2022-11-22T15:03:07.722Z,98565.53
2022-11-22T15:09:11.059Z,98568.81
2022-11-22T15:14:17.884Z,98579.69
2022-11-22T15:57:54.925Z,98622.03
2022-11-22T16:02:59.718Z,98624.00
2022-11-22T16:08:02.547Z,98637.16
2022-11-22T16:13:34.507Z,98632.28
2022-11-22T16:18:36.312Z,98633.81
2022-11-22T16:23:39.391Z,98637.09
2022-11-22T16:28:40.865Z,98637.34
2022-11-22T16:33:42.360Z,98646.47
2022-11-22T16:38:44.596Z,98649.63
2022-11-22T16:43:46.605Z,98652.06
2022-11-22T16:48:48.650Z,98656.81
2022-11-22T16:53:51.692Z,98655.00
2022-11-22T16:58:55.557Z,98656.16
2022-11-22T17:03:57.862Z,98657.81
2022-11-22T17:09:00.309Z,98653.22
2022-11-22T17:14:01.845Z,98666.22
2022-11-22T17:19:03.343Z,98673.97
2022-11-22T17:24:09.322Z,98678.72
2022-11-22T17:29:18.312Z,98683.06
2022-11-22T17:34:32.830Z,98691.75
2022-11-22T17:39:34.551Z,98696.22
2022-11-22T17:44:35.987Z,98697.97
2022-11-22T17:49:37.476Z,98707.88
2022-11-22T17:54:38.954Z,98721.00
2022-11-22T17:59:40.389Z,98717.59
2022-11-22T18:04:41.837Z,98726.63
2022-11-22T18:09:43.223Z,98734.00
2022-11-22T18:14:44.643Z,98736.88
2022-11-22T18:19:46.277Z,98741.00
2022-11-22T18:24:47.986Z,98738.53
2022-11-22T18:29:49.552Z,98746.28
2022-11-22T18:34:51.029Z,98740.66
2022-11-22T18:39:52.698Z,98739.81
2022-11-22T18:44:54.126Z,98742.47
2022-11-22T18:49:55.538Z,98745.22
2022-11-22T18:54:56.947Z,98742.41
2022-11-22T18:59:58.407Z,98749.31
2022-11-22T19:04:59.873Z,98747.78
2022-11-22T19:10:01.420Z,98750.06
2022-11-22T19:15:02.973Z,98757.69
2022-11-22T19:20:04.760Z,98765.72
2022-11-22T19:25:06.853Z,98763.75
2022-11-22T19:30:08.898Z,98765.09
2022-11-22T19:35:10.418Z,98767.53
2022-11-22T19:40:12.007Z,98769.19
2022-11-22T19:45:13.472Z,98760.97
2022-11-22T19:50:14.956Z,98767.06
2022-11-22T19:55:16.513Z,98772.03
2022-11-22T20:00:18.067Z,98765.44
2022-11-22T20:05:20.272Z,98770.63
2022-11-22T20:10:21.707Z,98788.66
2022-11-22T20:15:23.075Z,98797.06
2022-11-22T20:20:24.529Z,98799.59
2022-11-22T20:25:26.106Z,98803.06
2022-11-22T20:30:27.509Z,98793.94
2022-11-22T20:35:29.122Z,98806.59
2022-11-22T20:40:30.618Z,98807.50
2022-11-22T20:45:32.068Z,98800.47
2022-11-22T20:50:34.718Z,98813.06
2022-11-22T20:55:36.174Z,98812.59
2022-11-22T21:00:38.494Z,98816.59
2022-11-22T21:05:39.976Z,98815.66
2022-11-22T21:10:41.436Z,98826.31
2022-11-22T21:15:43.846Z,98834.22
2022-11-22T21:20:45.380Z,98838.41
2022-11-22T21:25:46.917Z,98836.41
2022-11-22T21:30:53.097Z,98838.72
2022-11-22T21:35:54.621Z,98837.97
2022-11-22T21:41:17.300Z,98837.94
2022-11-22T21:46:21.242Z,98841.81
2022-11-22T21:51:23.116Z,98836.59
2022-11-22T21:56:25.243Z,98836.31
2022-11-22T22:01:27.265Z,98837.94
2022-11-22T22:06:29.006Z,98837.47
2022-11-22T22:11:30.443Z,98838.09
2022-11-22T22:16:31.892Z,98833.44
2022-11-22T22:21:33.644Z,98838.03
2022-11-22T22:26:35.149Z,98837.66
2022-11-22T22:31:36.674Z,98848.31
2022-11-22T22:36:38.144Z,98845.56
2022-11-22T22:41:39.720Z,98851.81
2022-11-22T22:46:41.242Z,98852.75
2022-11-22T22:51:42.719Z,98859.34
2022-11-22T22:56:44.337Z,98866.03
2022-11-22T23:01:45.845Z,98859.78
2022-11-22T23:06:47.380Z,98866.75
2022-11-22T23:11:48.825Z,98861.94
2022-11-22T23:16:55.908Z,98862.97
2022-11-22T23:21:59.043Z,98871.69
2022-11-22T23:27:00.630Z,98872.06
2022-11-22T23:32:02.997Z,98869.13
2022-11-22T23:37:04.445Z,98865.81
2022-11-22T23:42:06.006Z,98865.63
2022-11-22T23:47:07.518Z,98878.34
2022-11-22T23:52:08.959Z,98875.06
2022-11-22T23:57:10.482Z,98874.66
